Tiempo atmosférico en la estación meteorológica de Alcañices, Zamora (840 m.)



Fecha
DESCASC
Temp. máxima en grados centígrados (hora)
DESCASC
Temp. mínima en grados centígrados (hora)
DESCASC
Temp. media en grados centígrados
DESCASC
Racha de viento máxima en m/sg (hora)
DESCASC
Velocidad máxima media en intervalos de 10 minutos(hora)
DESCASC
Precipitaciones diarias en mm
DESCASC
Precipitaciones de 00:00 a 06:00 en mm
DESCASC
Precipitaciones de 06:00 a 12:00 en mm
DESCASC
Precipitaciones de 12:00 a 18:00 en mm
DESCASC
Precipitaciones de 18:00 a 24:00 en mm
DESCASC
06-12-2018 11.3 (14:40) 4.5 (23:30) 7.9 5.83 (15:20) 4.17 (15:40) 0.4 0.2 0 0 0.2
05-12-2018 10.8 (16:10) 4.3 (08:40) 7.6 6.39 (15:40) 4.72 (17:00) 0.2 0.2 0 0 0
04-12-2018 14.1 (14:40) 5.8 (23:59) 10 5 (20:30) 4.17 (20:10) 0.2 0.2 0 0 0
03-12-2018 10.3 (16:40) 7.8 (00:00) 9.1 6.67 (00:20) 4.44 (00:20) 0 0 0 0 0
02-12-2018 12.1 (15:40) 5.9 (00:00) 9 9.44 (15:30) 6.39 (12:10) 0 0 0 0 0
01-12-2018 7.6 (13:40) 2.9 (00:00) 5.3 9.72 (14:10) 7.22 (14:10) 0 0 0 0 0
30-11-2018 9.6 (13:50) 1.7 (00:00) 5.7 7.22 (14:40) 5 (12:30) 0.2 0.2 0 0 0
29-11-2018 6.1 (14:40) 2.9 (00:00) 4.5 10.28 (06:20) 6.67 (06:10) 14.8 0 1.2 13.6 0
28-11-2018 12.1 (16:40) 1.2 (00:00) 6.7 5.83 (12:30) 4.17 (12:50) 0 0 0 0 0
27-11-2018 9.8 (14:40) 0.2 (00:00) 5 6.67 (16:10) 4.72 (16:10) 0 0 0 0 0
25-11-2018 10.7 (14:30) 5.1 (00:00) 7.9 12.5 (01:00) 8.06 (01:00) 6 2.6 0 0 3.4
24-11-2018 7.9 (15:40) 5.2 (00:00) 6.5 15 (22:10) 9.72 (22:10) 5.6 1.6 0.4 1.6 2
23-11-2018 7.6 (15:30) 2.9 (00:00) 5.3 10.83 (14:50) 7.22 (14:00) 1.6 0 0 1.2 0.4
22-11-2018 9.9 (13:40) 4.2 (00:00) 7 11.39 (14:00) 7.5 (14:00) 2.2 1.4 0.6 0 0.2
21-11-2018 8.8 (14:40) 4.2 (00:00) 6.5 12.78 (14:10) 7.78 (14:10) 4.6 2.2 0.6 0 1.8
20-11-2018 8.8 (12:40) 5.6 (00:00) 7.2 11.67 (12:30) 7.78 (12:30) 4 2.6 0.4 0.2 0.8
19-11-2018 14.1 (16:20) 7 (00:00) 10.6 6.94 (02:50) 4.72 (01:30) 0 0 0 0 0
18-11-2018 11 (12:00) 6.7 (00:00) 8.8 10 (12:40) 7.22 (11:30) 2.8 0 0 0.2 2.6
17-11-2018 15.9 (13:30) 4.8 (00:00) 10.3 7.22 (15:50) 5 (14:50) 0 0 0 0 0
16-11-2018 14.3 (14:00) 5.9 (00:00) 10.1 7.5 (16:10) 5.56 (13:00) 0 0 0 0 0
15-11-2018 16.3 (15:40) 7.4 (00:00) 11.8 7.22 (15:10) 5 (16:30) 0.2 0.2 0 0 0
14-11-2018 9.4 (14:40) 3.6 (00:00) 6.5 8.06 (10:40) 5.83 (09:10) 0 0 0 0 0
13-11-2018 13 (15:40) 2.8 (00:00) 7.9 9.17 (12:00) 6.67 (11:50) 0 0 0 0 0
12-11-2018 13.8 (16:30) 3.8 (00:00) 8.8 4.17 (04:50) 2.78 (05:00) 2.2 2.2 0 0 0
11-11-2018 10.9 (12:30) 6.8 (00:00) 8.8 13.06 (03:50) 8.61 (05:50) 34.8 0 5.6 17 12.2
10-11-2018 13.5 (15:30) 8.7 (00:00) 11.1 18.33 (16:10) 11.67 (15:40) 12.2 7.8 4.2 0.2 0
09-11-2018 9.8 (23:40) 3.2 (00:00) 6.5 15.56 (21:40) 10.28 (23:59) 0.6 0 0 0.2 0.4

Gráficas

Temp. máximas Temp. mínimas Temp. medias Precipitaciones Rachas de viento máximas Velocidades máximas media en intervalos de 10 minutos

Datos horarios

Fecha y hora oficial Temperatura (ºC) Velocidad del viento (km/h) Dirección del viento Racha (km/h) Dirección de racha Precipitación (mm) Presión (hPa) Tendencia (hPa) Humedad (%)
2018-12-08 23:00:00 6 12 Sudoeste 17 Sudoeste 0 -- -- 88
2018-12-08 22:00:00 6.4 9 Sudoeste 12 Sudoeste 0 -- -- 85
2018-12-08 21:00:00 6 4 Sudoeste 12 Oeste 0 -- -- 90
2018-12-08 20:00:00 6 4 Noroeste 15 Sudoeste 0 -- -- 88
2018-12-08 19:00:00 7.7 13 Oeste 20 Sudoeste 0 -- -- 79
2018-12-08 18:00:00 8.2 9 Oeste 16 Sudoeste 0 -- -- 75
2018-12-08 17:00:00 12 9 Sudoeste 17 Sudoeste 0 -- -- 56
2018-12-08 16:00:00 13.1 9 Sudoeste 17 Sudoeste 0 -- -- 54
2018-12-08 15:00:00 13.2 10 Sudoeste 15 Sur 0 -- -- 57
2018-12-08 14:00:00 12.7 7 Sur 13 Sudoeste 0 -- -- 58
2018-12-08 13:00:00 12.6 5 Sur 9 Sur 0 -- -- 59
2018-12-08 12:00:00 10.8 5 Sur 9 Sudeste 0 -- -- 73
2018-12-08 11:00:00 6.6 5 Sudoeste 10 Nordeste 0 -- -- 96
2018-12-08 10:00:00 3.5 6 Este 9 Nordeste 0 -- -- 100
2018-12-08 09:00:00 1.2 4 Nordeste 6 Sudoeste 0 -- -- 100
2018-12-08 08:00:00 2.5 5 Oeste 7 Sur 0 -- -- 100
2018-12-08 07:00:00 2.8 7 Sur 17 Oeste 0 -- -- 100
2018-12-08 06:00:00 4 10 Sudoeste 14 Sudoeste 0 -- -- 100
2018-12-08 05:00:00 3.9 3 Sudoeste 13 Oeste 0 -- -- 100
2018-12-08 04:00:00 4.9 8 Oeste 24 Oeste 0 -- -- 100
2018-12-08 03:00:00 5.3 15 Oeste 22 Oeste 0 -- -- 100
2018-12-08 02:00:00 5.5 11 Oeste 19 Oeste 0 -- -- 100
2018-12-08 01:00:00 6.4 16 Sudoeste 25 Sudoeste 0 -- -- 100
2018-12-08 00:00:00 7 19 Sudoeste 26 Sudoeste 0 -- -- 100
2018-12-07 23:00:00 7.4 15 Sudoeste 26 Sudoeste 0 -- -- 100
2018-12-07 22:00:00 7.6 16 Sudoeste 27 Sudoeste 0 -- -- 100
2018-12-07 21:00:00 7.6 15 Sudoeste 24 Sudoeste 0 -- -- 100
2018-12-07 20:00:00 7.5 15 Sudoeste 22 Sudoeste 0 -- -- 100
2018-12-07 19:00:00 7.4 14 Sudoeste 27 Sudoeste 0 -- -- 100
2018-12-07 18:00:00 7.4 13 Sudoeste 26 Sudoeste 0 -- -- 100
2018-12-07 17:00:00 7.4 16 Sudoeste 25 Sudoeste 0 -- -- 100
2018-12-07 16:00:00 8.7 18 Oeste 28 Oeste 0 -- -- 100
2018-12-07 15:00:00 7 18 Sudoeste 28 Sudoeste 0 -- -- 100
2018-12-07 14:00:00 6.4 18 Sudoeste 31 Sudoeste 0 -- -- 100
2018-12-07 13:00:00 6 22 Sudoeste 28 Sudoeste 0 -- -- 100
2018-12-07 12:00:00 5.5 20 Sudoeste 29 Sudoeste 0 -- -- 100
2018-12-07 11:00:00 4.7 20 Sudoeste 28 Sudoeste 0 -- -- 100
2018-12-07 10:00:00 3.9 8 Sudoeste 15 Sudoeste 0 -- -- 100
2018-12-07 09:00:00 3.3 7 Sudoeste 15 Oeste 0 -- -- 100
2018-12-07 08:00:00 2.5 11 Oeste 16 Oeste 0 -- -- 100
2018-12-07 07:00:00 2.8 7 Sudoeste 10 Sudoeste 0 -- -- 100
2018-12-07 06:00:00 3.4 5 Oeste 8 Oeste 0 -- -- 100
2018-12-07 05:00:00 3.3 3 Sur 5 Sur 0 -- -- 100
2018-12-07 04:00:00 3.4 0 Calma 6 Nordeste 0 -- -- 100
2018-12-07 03:00:00 3.9 5 Este 9 Nordeste 0 -- -- 100
2018-12-07 02:00:00 4.5 5 Nordeste 10 Nordeste 0 -- -- 100
2018-12-07 01:00:00 4.9 5 Norte 8 Norte 0 -- -- 100
2018-12-07 00:00:00 4.8 5 Nordeste 8 Nordeste 0 -- -- 100
2018-12-06 23:00:00 4.9 4 Nordeste 7 Norte 0.2 -- -- 100
2018-12-06 22:00:00 5.2 6 Norte 8 Norte 0 -- -- 100
2018-12-06 21:00:00 6.1 5 Noroeste 9 Oeste 0 -- -- 100
2018-12-06 20:00:00 6.6 3 Noroeste 6 Noroeste 0 -- -- 100
2018-12-06 19:00:00 6.8 4 Oeste 7 Sudoeste 0 -- -- 100
2018-12-06 18:00:00 7 7 Sudoeste 12 Sudoeste 0 -- -- 99
2018-12-06 17:00:00 9.7 11 Sudoeste 20 Sudoeste 0 -- -- 90
2018-12-06 16:00:00 10.5 13 Sudoeste 21 Oeste 0 -- -- 86
2018-12-06 15:00:00 10.7 14 Sudoeste 19 Oeste 0 -- -- 88
2018-12-06 14:00:00 10.3 12 Sudoeste 18 Oeste 0 -- -- 97
2018-12-06 13:00:00 8.6 11 Sudoeste 15 Sudoeste 0 -- -- 100
2018-12-06 12:00:00 8.2 8 Sudoeste 13 Oeste 0 -- -- 100
2018-12-06 11:00:00 7.2 6 Sudoeste 15 Oeste 0 -- -- 100
2018-12-06 10:00:00 6.9 6 Sudoeste 10 Sudoeste 0 -- -- 100
2018-12-06 09:00:00 6.5 3 Sur 6 Sudoeste 0 -- -- 100
2018-12-06 08:00:00 6.3 3 Sur 11 Oeste 0 -- -- 100
2018-12-06 07:00:00 6.5 6 Oeste 11 Oeste 0 -- -- 100
2018-12-06 06:00:00 6.5 5 Oeste 10 Oeste 0.2 -- -- 100
2018-12-06 05:00:00 6.6 5 Sudoeste 13 Sudoeste 0 -- -- 100
2018-12-06 04:00:00 6.5 6 Sudoeste 18 Sudoeste 0 -- -- 100
2018-12-06 03:00:00 6.2 6 Sudoeste 12 Sudoeste 0 -- -- 100
2018-12-06 02:00:00 6.2 6 Sudoeste 19 Sudoeste 0 -- -- 100
2018-12-06 01:00:00 6.4 9 Sudoeste 13 Sudoeste 0 -- -- 100
2018-12-06 00:00:00 6.6 12 Sudoeste 22 Sudoeste 0 -- -- 100
2018-12-05 23:00:00 6.3 12 Sudoeste 17 Sudoeste 0 -- -- 100
2018-12-05 22:00:00 5.5 4 Sur 10 Nordeste 0 -- -- 100
2018-12-05 21:00:00 5.1 5 Norte 10 Nordeste 0 -- -- 100
2018-12-05 20:00:00 5.9 4 Noroeste 9 Noroeste 0 -- -- 100
2018-12-05 19:00:00 6.3 6 Norte 18 Sudoeste 0 -- -- 100
2018-12-05 18:00:00 7 10 Sudoeste 23 Oeste 0 -- -- 100
2018-12-05 17:00:00 9.3 17 Sudoeste 22 Oeste 0 -- -- 92
2018-12-05 16:00:00 10.3 16 Sudoeste 23 Sudoeste 0 -- -- 94
2018-12-05 15:00:00 9.5 8 Sudoeste 16 Sur 0 -- -- 98
2018-12-05 14:00:00 8 8 Sudoeste 13 Sudoeste 0 -- -- 100
2018-12-05 13:00:00 7.2 8 Sudoeste 16 Sudoeste 0 -- -- 100
2018-12-05 12:00:00 6.8 9 Sudoeste 16 Oeste 0 -- -- 100
2018-12-05 11:00:00 6.2 5 Sudeste 10 Este 0 -- -- 100
2018-12-05 10:00:00 5 5 Este 9 Nordeste 0 -- -- 100
2018-12-05 09:00:00 4.5 4 Nordeste 9 Este 0 -- -- 100
2018-12-05 08:00:00 5.2 6 Este 11 Este 0 -- -- 100
2018-12-05 07:00:00 5.8 8 Este 12 Nordeste 0 -- -- 100
2018-12-05 06:00:00 6.3 8 Este 16 Este 0 -- -- 100
2018-12-05 05:00:00 6.4 10 Este 18 Este 0 -- -- 100
2018-12-05 04:00:00 6.5 10 Este 17 Este 0.2 -- -- 100
2018-12-05 03:00:00 6.1 9 Este 18 Este 0 -- -- 100
2018-12-05 02:00:00 5.5 15 Este 19 Este 0 -- -- 100
2018-12-05 01:00:00 5.5 4 Este 9 Este 0 -- -- 100
2018-12-05 00:00:00 5.8 9 Este 15 Este 0 -- -- 100
2018-12-04 23:00:00 6.5 12 Este 16 Este 0 -- -- 100
2018-12-04 22:00:00 6.5 11 Nordeste 14 Nordeste 0 -- -- 100
2018-12-04 21:00:00 7.5 14 Este 18 Este 0 -- -- 100
2018-12-04 20:00:00 8.1 14 Este 17 Este 0 -- -- 100
2018-12-04 19:00:00 8.8 11 Este 14 Este 0 -- -- 99
2018-12-04 18:00:00 9.8 12 Este 13 Este 0 -- -- 95
2018-12-04 17:00:00 13.1 9 Este 13 Este 0 -- -- 81
2018-12-04 16:00:00 14.1 8 Este 13 Este 0 -- -- 76
2018-12-04 15:00:00 13.8 8 Este 12 Nordeste 0 -- -- 79
2018-12-04 14:00:00 13.2 9 Este 15 Este 0 -- -- 88
2018-12-04 13:00:00 11.4 8 Este 14 Este 0 -- -- 100
2018-12-04 12:00:00 10.2 6 Nordeste 14 Este 0 -- -- 100
2018-12-04 11:00:00 9.6 8 Este 15 Nordeste 0 -- -- 100
2018-12-04 10:00:00 9.2 13 Este 16 Nordeste 0 -- -- 100
2018-12-04 09:00:00 8.7 9 Nordeste 15 Nordeste 0 -- -- 100
2018-12-04 08:00:00 8.9 9 Nordeste 12 Nordeste 0 -- -- 100
2018-12-04 07:00:00 9.1 9 Nordeste 17 Nordeste 0 -- -- 100
2018-12-04 06:00:00 9.3 10 Nordeste 16 Nordeste 0.2 -- -- 100
2018-12-04 05:00:00 9.3 12 Nordeste 15 Este 0 -- -- 100
2018-12-04 04:00:00 9.4 9 Nordeste 17 Nordeste 0 -- -- 100
2018-12-04 03:00:00 9.5 9 Nordeste 12 Nordeste 0 -- -- 100
2018-12-04 02:00:00 9.5 6 Nordeste 10 Nordeste 0 -- -- 100
2018-12-04 01:00:00 8.8 6 Este 8 Este 0 -- -- 100
2018-12-04 00:00:00 7.9 4 Este 6 Nordeste 0 -- -- 100
2018-12-03 23:00:00 8.4 5 Norte 8 Nordeste 0 -- -- 100
2018-12-03 22:00:00 9 3 Oeste 9 Sudoeste 0 -- -- 100
2018-12-03 21:00:00 10 5 Sur 13 Sudoeste 0 -- -- 100
2018-12-03 20:00:00 10.3 9 Sudoeste 14 Sur 0 -- -- 100
2018-12-03 19:00:00 10.3 6 Sudoeste 12 Sudoeste 0 -- -- 100
2018-12-03 18:00:00 10.2 10 Sudoeste 17 Sudoeste 0 -- -- 100
2018-12-03 17:00:00 10.3 12 Sudoeste 19 Sudoeste 0 -- -- 100
2018-12-03 16:00:00 10.1 11 Sudoeste 19 Sudoeste 0 -- -- 100
2018-12-03 15:00:00 9.6 13 Sudoeste 21 Sudoeste 0 -- -- 100
2018-12-03 14:00:00 9.4 9 Sudoeste 14 Sur 0 -- -- 100
2018-12-03 13:00:00 9.1 12 Sudoeste 20 Sudoeste 0 -- -- 100
2018-12-03 12:00:00 8.8 13 Sudoeste 19 Sudoeste 0 -- -- 100
2018-12-03 11:00:00 8.6 11 Sudoeste 16 Sudoeste 0 -- -- 100
2018-12-03 10:00:00 8.2 11 Sudoeste 18 Sudoeste 0 -- -- 100
2018-12-03 09:00:00 7.9 14 Sudoeste 21 Sudoeste 0 -- -- 100
2018-12-03 08:00:00 7.8 13 Sudoeste 23 Sudoeste 0 -- -- 100
2018-12-03 07:00:00 7.9 10 Sudoeste 18 Sur 0 -- -- 100
2018-12-03 06:00:00 8 12 Sudoeste 19 Sudoeste 0 -- -- 100
2018-12-03 05:00:00 8.1 11 Sudoeste 18 Sudoeste 0 -- -- 100
2018-12-03 04:00:00 8.1 12 Sudoeste 19 Sudoeste 0 -- -- 100
2018-12-03 03:00:00 8.5 12 Sudoeste 22 Sudoeste 0 -- -- 96
2018-12-03 02:00:00 8.6 13 Sudoeste 20 Sudoeste 0 -- -- 94
2018-12-03 01:00:00 8.7 14 Sudoeste 24 Sudoeste 0 -- -- 92
2018-12-03 00:00:00 8.7 17 Sudoeste 25 Sudoeste 0 -- -- 91
2018-12-02 23:00:00 8.9 16 Sudoeste 24 Sudoeste 0 -- -- 90
2018-12-02 22:00:00 9 18 Sudoeste 27 Sudoeste 0 -- -- 89
2018-12-02 21:00:00 9.1 17 Sudoeste 21 Sudoeste 0 -- -- 89
2018-12-02 20:00:00 9 13 Sudoeste 18 Sudoeste 0 -- -- 91
2018-12-02 19:00:00 9.3 12 Sudoeste 19 Sudoeste 0 -- -- 89
2018-12-02 18:00:00 8.5 11 Sudoeste 26 Sudoeste 0 -- -- 91
2018-12-02 17:00:00 11 17 Sudoeste 33 Sudoeste 0 -- -- 79
2018-12-02 16:00:00 11.1 20 Sudoeste 34 Sudoeste 0 -- -- 80
2018-12-02 15:00:00 9.9 15 Sudoeste 30 Sudoeste 0 -- -- 87
2018-12-02 14:00:00 9.3 20 Sudoeste 31 Sudoeste 0 -- -- 88
2018-12-02 13:00:00 9 20 Sudoeste 33 Sudoeste 0 -- -- 90
2018-12-02 12:00:00 8.5 20 Sudoeste 32 Sudoeste 0 -- -- 93
2018-12-02 11:00:00 7.6 17 Sudoeste 25 Sudoeste 0 -- -- 98
2018-12-02 10:00:00 6.8 13 Sudoeste 27 Sudoeste 0 -- -- 100
2018-12-02 09:00:00 6.4 17 Sudoeste 24 Sudoeste 0 -- -- 100
2018-12-02 08:00:00 6.3 22 Sudoeste 31 Sudoeste 0 -- -- 100
2018-12-02 07:00:00 6.4 13 Sudoeste 23 Sudoeste 0 -- -- 100
2018-12-02 06:00:00 6.3 15 Sudoeste 25 Sudoeste 0 -- -- 100
2018-12-02 05:00:00 6 19 Sudoeste 26 Sudoeste 0 -- -- 100
2018-12-02 04:00:00 6.3 17 Sudoeste 27 Sudoeste 0 -- -- 100
2018-12-02 03:00:00 6.5 16 Sudoeste 24 Sudoeste 0 -- -- 100
2018-12-02 02:00:00 6.5 15 Sudoeste 27 Sudoeste 0 -- -- 100
2018-12-02 01:00:00 6.7 14 Sudoeste 25 Sudoeste 0 -- -- 99
2018-12-02 00:00:00 6.8 8 Sur 26 Sudoeste 0 -- -- 98
2018-12-01 23:00:00 6.6 11 Sudoeste 21 Oeste 0 -- -- 98
2018-12-01 22:00:00 7 10 Sudoeste 31 Sudoeste 0 -- -- 98
2018-12-01 21:00:00 7.2 19 Sudoeste 30 Sudoeste 0 -- -- 98
2018-12-01 20:00:00 7.2 22 Sudoeste 30 Sudoeste 0 -- -- 98
2018-12-01 19:00:00 7.3 19 Sudoeste 31 Sudoeste 0 -- -- 97
2018-12-01 18:00:00 7.2 17 Sudoeste 31 Sudoeste 0 -- -- 97
2018-12-01 17:00:00 7.2 19 Sudoeste 30 Sudoeste 0 -- -- 97
2018-12-01 16:00:00 7 18 Sudoeste 31 Sudoeste 0 -- -- 96
2018-12-01 15:00:00 7.3 14 Sudoeste 35 Sudoeste 0 -- -- 92
2018-12-01 14:00:00 7.6 21 Sudoeste 34 Oeste 0 -- -- 90
2018-12-01 13:00:00 7.5 21 Sudoeste 35 Sudoeste 0 -- -- 100
2018-12-01 12:00:00 6.1 19 Sudoeste 26 Sudoeste 0 -- -- 100
2018-12-01 11:00:00 4.8 17 Sudoeste 27 Sudoeste 0 -- -- 100
2018-12-01 10:00:00 4.2 16 Sudoeste 27 Sudoeste 0 -- -- 100
2018-12-01 09:00:00 4 15 Sudoeste 22 Sudoeste 0 -- -- 100
2018-12-01 08:00:00 4.2 9 Sudoeste 22 Sudoeste 0 -- -- 100
2018-12-01 07:00:00 4.1 12 Sudoeste 18 Sudoeste 0 -- -- 100
2018-12-01 06:00:00 3.9 12 Oeste 19 Sudoeste 0 -- -- 100
2018-12-01 05:00:00 3.7 10 Oeste 16 Oeste 0 -- -- 100
2018-12-01 04:00:00 3.6 10 Sudoeste 15 Sudoeste 0 -- -- 100
2018-12-01 03:00:00 3.5 10 Sudoeste 19 Sudoeste 0 -- -- 100
2018-12-01 02:00:00 4.1 14 Oeste 19 Oeste 0 -- -- 100
2018-12-01 01:00:00 3.2 9 Sudoeste 12 Sudoeste 0 -- -- 100
2018-12-01 00:00:00 3.9 5 Sudoeste 10 Sudoeste 0 -- -- 100
2018-11-30 23:00:00 3.6 4 Sudoeste 8 Oeste 0 -- -- 100
2018-11-30 22:00:00 3.8 7 Sudoeste 14 Sudoeste 0 -- -- 100
2018-11-30 21:00:00 3.9 12 Sudoeste 14 Sudoeste 0 -- -- 100
2018-11-30 20:00:00 4.5 12 Sudoeste 17 Oeste 0 -- -- 99
2018-11-30 19:00:00 4.2 9 Sur 13 Sur 0 -- -- 96
2018-11-30 18:00:00 5.6 9 Sudoeste 15 Sudoeste 0 -- -- 92
2018-11-30 17:00:00 7 11 Sudoeste 16 Sudoeste 0 -- -- 87
2018-11-30 16:00:00 8.6 13 Sudoeste 23 Sudoeste 0 -- -- 81
2018-11-30 15:00:00 9.3 17 Sudoeste 26 Oeste 0 -- -- 77
2018-11-30 14:00:00 9.1 16 Oeste 24 Sudoeste 0 -- -- 78
2018-11-30 13:00:00 8.2 18 Sudoeste 25 Sudoeste 0 -- -- 93
2018-11-30 12:00:00 6.2 11 Oeste 18 Oeste 0 -- -- 99
2018-11-30 11:00:00 4.7 9 Oeste 20 Sudoeste 0 -- -- 100
2018-11-30 10:00:00 3.8 13 Sudoeste 20 Sudoeste 0 -- -- 100
2018-11-30 09:00:00 2.3 6 Sudoeste 14 Sudoeste 0 -- -- 100
2018-11-30 08:00:00 2.5 10 Sudoeste 14 Sudoeste 0 -- -- 100
2018-11-30 07:00:00 2.6 10 Sudoeste 17 Oeste 0 -- -- 100
2018-11-30 06:00:00 4 12 Oeste 21 Sudoeste 0 -- -- 100
2018-11-30 05:00:00 4.1 10 Oeste 16 Oeste 0 -- -- 100
2018-11-30 04:00:00 4.1 11 Sudoeste 18 Sudoeste 0 -- -- 100
2018-11-30 03:00:00 4.5 10 Sudoeste 21 Sudoeste 0.2 -- -- 100
2018-11-30 02:00:00 4.9 10 Sudoeste 17 Oeste 0 -- -- 100
2018-11-30 01:00:00 5.2 8 Sudoeste 13 Sudoeste 0 -- -- 100
2018-11-30 00:00:00 5.3 7 Oeste 15 Noroeste 0 -- -- 100
2018-11-29 23:00:00 5.5 10 Oeste 18 Oeste 0 -- -- 100
2018-11-29 22:00:00 5.9 7 Sudoeste 17 Sudoeste 0 -- -- 100
2018-11-29 21:00:00 5.9 4 Oeste 6 Oeste 0 -- -- 100
2018-11-29 20:00:00 5.9 4 Oeste 11 Sudoeste 0 -- -- 100
2018-11-29 19:00:00 5.8 7 Sudoeste 21 Sur 0 -- -- 100
2018-11-29 18:00:00 5.7 10 Sudoeste 19 Sudoeste 0 -- -- 100
2018-11-29 17:00:00 5.6 13 Sudoeste 23 Sur 0.6 -- -- 100
2018-11-29 16:00:00 5.5 16 Sur 28 Sudoeste 2 -- -- 100
2018-11-29 15:00:00 6 21 Sur 35 Sur 0.6 -- -- 100
2018-11-29 14:00:00 5.4 23 Sur 36 Sur 4.8 -- -- 100
2018-11-29 13:00:00 4.8 21 Sur 30 Sudoeste 5.6 -- -- 100
2018-11-29 12:00:00 4.8 15 Sudoeste 28 Sur 1 -- -- 99
2018-11-29 11:00:00 5.2 13 Sudoeste 23 Sudoeste 0.2 -- -- 93
2018-11-29 10:00:00 5.2 17 Sudoeste 26 Sudoeste 0 -- -- 86
2018-11-29 09:00:00 5.3 13 Sur 23 Sur 0 -- -- 78
2018-11-29 08:00:00 3.8 11 Sur 29 Sudoeste 0 -- -- 78
2018-11-29 07:00:00 4.6 23 Sudoeste 37 Sudoeste 0 -- -- 74
2018-11-29 06:00:00 4.4 22 Sudoeste 33 Sudoeste 0 -- -- 77
2018-11-29 05:00:00 4.2 19 Sur 30 Sur 0 -- -- 79
2018-11-29 04:00:00 2.9 12 Sudoeste 20 Sudoeste 0 -- -- 82
2018-11-29 03:00:00 4.8 16 Sudoeste 28 Sudoeste 0 -- -- 75
2018-11-29 02:00:00 4.2 15 Sudoeste 26 Sudoeste 0 -- -- 72
2018-11-29 01:00:00 3.7 15 Sudoeste 21 Sur 0 -- -- 75
2018-11-29 00:00:00 4.3 12 Sudoeste 19 Sudoeste 0 -- -- 75
2018-11-28 23:00:00 4.3 13 Sur 19 Sur 0 -- -- 78
2018-11-28 22:00:00 3 8 Este 9 Nordeste 0 -- -- 89
2018-11-28 21:00:00 5.2 2 Sudeste 3 Sudeste 0 -- -- 80
2018-11-28 14:00:00 -- -- -- -- -- -- -- -- --
2018-11-28 13:00:00 8.8 14 Sudoeste 21 Oeste 0 -- -- 74
2018-11-28 12:00:00 7.9 11 Sudoeste 19 Sudoeste 0 -- -- 83
2018-11-28 11:00:00 6.5 12 Sudoeste 18 Sudoeste 0 -- -- 96
2018-11-28 10:00:00 2.7 3 Este 11 Oeste 0 -- -- 100
2018-11-28 09:00:00 1.5 10 Oeste 14 Sudoeste 0 -- -- 100
2018-11-28 08:00:00 1.6 9 Sudoeste 14 Sudoeste 0 -- -- 100
2018-11-28 07:00:00 1.8 6 Sudoeste 13 Sudoeste 0 -- -- 100
2018-11-28 06:00:00 2 11 Sudoeste 15 Sudoeste 0 -- -- 100
2018-11-28 05:00:00 2 11 Sudoeste 17 Sudoeste 0 -- -- 99
2018-11-28 04:00:00 2.6 10 Sudoeste 16 Sudoeste 0 -- -- 97
2018-11-28 03:00:00 2.8 13 Sudoeste 17 Sudoeste 0 -- -- 94
2018-11-28 02:00:00 3.9 7 Oeste 9 Oeste 0 -- -- 87
2018-11-28 01:00:00 3.5 4 Sudoeste 8 Sudoeste 0 -- -- 89
2018-11-28 00:00:00 4.5 6 Sudoeste 8 Sudoeste 0 -- -- 83
2018-11-27 23:00:00 4.9 5 Sudoeste 6 Sudoeste 0 -- -- 81
2018-11-27 22:00:00 4.1 7 Sudoeste 8 Oeste 0 -- -- 83
2018-11-27 21:00:00 5 6 Oeste 10 Oeste 0 -- -- 80
2018-11-27 20:00:00 5.2 9 Oeste 11 Oeste 0 -- -- 83
2018-11-27 19:00:00 4.9 5 Sudoeste 13 Sudoeste 0 -- -- 78
2018-11-27 18:00:00 6.7 9 Sudoeste 16 Sudoeste 0 -- -- 68
2018-11-27 17:00:00 8.4 11 Sudoeste 24 Sudoeste 0 -- -- 62
2018-11-27 16:00:00 9.2 14 Oeste 22 Sudoeste 0 -- -- 65
2018-11-27 15:00:00 9.2 12 Sudoeste 18 Oeste 0 -- -- 65
2018-11-27 14:00:00 8.2 7 Sudoeste 15 Oeste 0 -- -- 82
2018-11-27 13:00:00 7.5 9 Sudoeste 15 Sudoeste 0 -- -- 85
2018-11-27 12:00:00 6.8 9 Sudoeste 14 Sudoeste 0 -- -- 90
2018-11-27 11:00:00 5.2 9 Sudoeste 13 Oeste 0 -- -- 97
2018-11-27 10:00:00 3.5 3 Sudoeste 8 Sur 0 -- -- 100
2018-11-27 09:00:00 2.2 8 Sudoeste 12 Sudoeste 0 -- -- 100
2018-11-27 08:00:00 0.5 3 Norte 5 Oeste 0 -- -- 100
2018-11-27 07:00:00 1.1 3 Oeste 8 Sudoeste 0 -- -- 100
2018-11-27 06:00:00 1.4 3 Sur 13 Sudoeste 0 -- -- 99
2018-11-27 05:00:00 2.5 10 Sudoeste 14 Sudoeste 0 -- -- 97
2018-11-27 04:00:00 1.9 8 Sur 10 Sur 0 -- -- 95
2018-11-27 03:00:00 1.5 4 Noroeste 7 Este 0 -- -- 97
2018-11-27 02:00:00 1.7 3 Noroeste 9 Sudoeste 0 -- -- 95
2018-11-27 01:00:00 3 9 Oeste 10 Oeste 0 -- -- 89
2018-11-27 00:00:00 1.7 5 Oeste 8 Sudoeste 0 -- -- 94
2018-11-26 23:00:00 1.6 4 Sur 9 Oeste 0 -- -- 94
2018-11-26 22:00:00 1.6 6 Oeste 9 Oeste 0 -- -- 92
2018-11-26 21:00:00 3.6 10 Oeste 14 Oeste 0 -- -- 84
2018-11-26 20:00:00 3 5 Oeste 19 Oeste 0 -- -- 87
2018-11-26 19:00:00 4 6 Oeste 18 Oeste 0 -- -- 84
2018-11-26 18:00:00 6 12 Sudoeste 27 Oeste 0 -- -- 78
2018-11-26 17:00:00 8.7 18 Oeste 32 Oeste 0 -- -- 70
2018-11-26 16:00:00 10.7 18 Oeste 26 Oeste 0 -- -- 64
2018-11-26 15:00:00 11 13 Oeste 27 Oeste 0 -- -- 63
2018-11-26 14:00:00 11.6 19 Noroeste 27 Noroeste 0 -- -- 55
2018-11-26 13:00:00 10.2 21 Noroeste 32 Oeste 0 -- -- 61
2018-11-26 12:00:00 9 16 Oeste 30 Oeste 0 -- -- 75
2018-11-26 11:00:00 8.2 20 Oeste 35 Oeste 0 -- -- 79
2018-11-26 10:00:00 6.7 19 Oeste 33 Oeste 0 -- -- 86
2018-11-26 09:00:00 5.5 8 Oeste 31 Oeste 0 -- -- 89
2018-11-26 08:00:00 5.1 19 Oeste 36 Oeste 0 -- -- 97
2018-11-26 07:00:00 4.9 18 Sudoeste 41 Sudoeste 0.2 -- -- 100
2018-11-26 06:00:00 4.4 26 Sudoeste 44 Sudoeste 0.2 -- -- 100
2018-11-26 05:00:00 4.1 30 Sudoeste 46 Sudoeste 0 -- -- 97
2018-11-26 04:00:00 4 21 Oeste 44 Oeste 0 -- -- 94
2018-11-26 03:00:00 4 30 Oeste 53 Oeste 0 -- -- 92
2018-11-26 02:00:00 4 23 Oeste 57 Oeste 0 -- -- 92
2018-11-26 01:00:00 5 27 Oeste 48 Oeste 2 -- -- 99
2018-11-26 00:00:00 5.5 9 Sudoeste 15 Sudoeste 0.2 -- -- 100
2018-11-25 23:00:00 5.3 3 Sur 12 Este 0.4 -- -- 100
2018-11-25 22:00:00 5.4 6 Este 10 Este 0.6 -- -- 100
2018-11-25 21:00:00 5.6 3 Norte 14 Oeste 0.8 -- -- 99
2018-11-25 20:00:00 5.8 8 Oeste 18 Sudoeste 1.2 -- -- 97
2018-11-25 19:00:00 6.8 13 Sudoeste 22 Sudoeste 0.2 -- -- 91
2018-11-25 18:00:00 7.4 10 Oeste 23 Sudoeste 0 -- -- 83
2018-11-25 17:00:00 8.2 15 Sudoeste 24 Sudoeste 0 -- -- 78
2018-11-25 16:00:00 9.3 12 Sudoeste 23 Sudoeste 0 -- -- 76
2018-11-25 15:00:00 9.1 16 Oeste 31 Sudoeste 0 -- -- 74
2018-11-25 14:00:00 9.8 15 Sudoeste 24 Sudoeste 0 -- -- 74
2018-11-25 13:00:00 9.1 14 Sudoeste 29 Sudoeste 0 -- -- 80
2018-11-25 12:00:00 8.7 16 Sudoeste 23 Sudoeste 0 -- -- 81
2018-11-25 11:00:00 8.3 15 Oeste 24 Oeste 0 -- -- 85
2018-11-25 10:00:00 7.1 9 Oeste 16 Oeste 0 -- -- 96
2018-11-25 09:00:00 5.4 13 Oeste 20 Oeste 0 -- -- 100
2018-11-25 08:00:00 6.1 7 Oeste 12 Sudoeste 0 -- -- 100
2018-11-25 07:00:00 6.1 7 Oeste 21 Oeste 0 -- -- 100
2018-11-25 06:00:00 7.1 12 Oeste 26 Oeste 0 -- -- 100
2018-11-25 05:00:00 8 18 Oeste 30 Oeste 0.8 -- -- 100
2018-11-25 04:00:00 8.4 18 Sudoeste 38 Sudoeste 0 -- -- 100
2018-11-25 03:00:00 8.2 22 Sudoeste 38 Sudoeste 0.4 -- -- 100
2018-11-25 02:00:00 7.9 22 Sudoeste 43 Sur 0.6 -- -- 100
2018-11-25 01:00:00 7.6 29 Sudoeste 45 Sudoeste 0.8 -- -- 100
2018-11-25 00:00:00 7.5 24 Sudoeste 51 Sudoeste 0.2 -- -- 100
2018-11-24 23:00:00 7.1 28 Sudoeste 54 Sudoeste 0 -- -- 100
2018-11-24 22:00:00 6.7 32 Sudoeste 51 Sudoeste 0.2 -- -- 99
2018-11-24 21:00:00 6.3 20 Sudoeste 38 Sur 0.8 -- -- 99
2018-11-24 20:00:00 6 19 Sur 44 Sur 0.6 -- -- 99
2018-11-24 19:00:00 6.1 20 Sur 43 Sur 0.2 -- -- 96
2018-11-24 18:00:00 6.5 21 Sur 41 Sudoeste 1 -- -- 94
2018-11-24 17:00:00 7.3 26 Sur 49 Sur 0.2 -- -- 87
2018-11-24 16:00:00 7.6 23 Sur 46 Sur 0 -- -- 85
2018-11-24 15:00:00 7.4 26 Sur 44 Sur 0 -- -- 92
2018-11-24 14:00:00 6.7 23 Sur 37 Sur 0.2 -- -- 98
2018-11-24 13:00:00 6.8 22 Sudoeste 35 Sur 0.2 -- -- 98
2018-11-24 12:00:00 7 20 Sur 37 Sur 0 -- -- 99
2018-11-24 11:00:00 6.1 17 Sur 33 Sudoeste 0.2 -- -- 100
2018-11-24 10:00:00 5.6 19 Sur 29 Sudoeste 0 -- -- 100
2018-11-24 09:00:00 5.4 15 Sudoeste 33 Sur 0 -- -- 100
2018-11-24 08:00:00 5.3 17 Sudoeste 26 Sur 0.2 -- -- 100
2018-11-24 07:00:00 5.2 18 Sur 33 Sudoeste 0 -- -- 100
2018-11-24 06:00:00 5.2 15 Sudoeste 28 Sur 0 -- -- 100
2018-11-24 05:00:00 5.2 18 Sudoeste 31 Sur 0 -- -- 100
2018-11-24 04:00:00 5.2 17 Sudoeste 31 Sur 0 -- -- 100
2018-11-24 03:00:00 5.4 18 Sudoeste 31 Sudoeste 0 -- -- 100
2018-11-24 02:00:00 5.4 18 Sudoeste 31 Sudoeste 0.4 -- -- 100
2018-11-24 01:00:00 5.3 17 Sudoeste 31 Sur 1.2 -- -- 100
2018-11-24 00:00:00 5.3 15 Sur 26 Sur 0 -- -- 100
2018-11-23 23:00:00 5.1 18 Sudoeste 28 Sudoeste 0.2 -- -- 100
2018-11-23 22:00:00 5 15 Sudoeste 24 Sur 0 -- -- 100
2018-11-23 21:00:00 4.9 12 Sur 17 Sur 0.2 -- -- 100
2018-11-23 20:00:00 4.6 11 Sudoeste 16 Sudoeste 0 -- -- 100
2018-11-23 19:00:00 4.7 8 Sudoeste 21 Sudoeste 0 -- -- 100
2018-11-23 18:00:00 5.1 9 Sudoeste 30 Sudoeste 0.6 -- -- 98
2018-11-23 17:00:00 6 8 Sudoeste 38 Sudoeste 0.4 -- -- 96
2018-11-23 16:00:00 7.1 16 Sudoeste 29 Sudoeste 0 -- -- 84
2018-11-23 15:00:00 6.9 21 Sudoeste 39 Sudoeste 0 -- -- 84
2018-11-23 14:00:00 6.5 26 Sudoeste 38 Sudoeste 0 -- -- 87
2018-11-23 13:00:00 6.4 17 Sudoeste 26 Sudoeste 0.2 -- -- 89
2018-11-23 12:00:00 5.4 16 Sudoeste 25 Sudoeste 0 -- -- 92
2018-11-23 11:00:00 5 15 Sudoeste 21 Sudoeste 0 -- -- 96
2018-11-23 10:00:00 4.1 14 Sudoeste 22 Sudoeste 0 -- -- 100
2018-11-23 09:00:00 3.3 9 Sudoeste 22 Sudoeste 0 -- -- 100
2018-11-23 08:00:00 2.9 12 Sudoeste 23 Sudoeste 0 -- -- 100
2018-11-23 07:00:00 3.5 14 Sudoeste 23 Sudoeste 0 -- -- 100
2018-11-23 06:00:00 3.7 14 Sudoeste 23 Sudoeste 0 -- -- 100
2018-11-23 05:00:00 4.4 15 Sudoeste 23 Sur 0 -- -- 100
2018-11-23 04:00:00 4.8 17 Sudoeste 23 Sudoeste 0 -- -- 99
2018-11-23 03:00:00 4.9 13 Sur 22 Sudoeste 0 -- -- 98
2018-11-23 02:00:00 5.1 13 Sudoeste 21 Sur 0 -- -- 98
2018-11-23 01:00:00 4.9 9 Sur 14 Sur 0 -- -- 99
2018-11-23 00:00:00 5.3 8 Sudoeste 17 Sur 0.2 -- -- 98
2018-11-22 23:00:00 5.7 12 Sudoeste 19 Sudoeste 0 -- -- 95
2018-11-22 22:00:00 5.7 12 Sudoeste 19 Sur 0 -- -- 95
2018-11-22 21:00:00 5.1 8 Sudoeste 26 Sudoeste 0 -- -- 95
2018-11-22 20:00:00 6.3 18 Sur 28 Sur 0 -- -- 91
2018-11-22 19:00:00 6.2 14 Sur 25 Sur 0 -- -- 89
2018-11-22 18:00:00 7.4 19 Sur 32 Sur 0 -- -- 85
2018-11-22 17:00:00 8.3 16 Sur 31 Sur 0 -- -- 82
2018-11-22 16:00:00 8.9 22 Sur 38 Sudoeste 0 -- -- 76
2018-11-22 15:00:00 9.3 26 Sur 39 Sur 0 -- -- 75
2018-11-22 14:00:00 9.4 27 Sur 41 Sur 0 -- -- 74
2018-11-22 13:00:00 8.1 19 Sur 31 Sur 0 -- -- 85
2018-11-22 12:00:00 8 17 Sur 30 Sur 0 -- -- 87
2018-11-22 11:00:00 6.4 15 Sur 23 Sur 0 -- -- 97
2018-11-22 10:00:00 5.4 15 Sur 24 Sudoeste 0.2 -- -- 100
2018-11-22 09:00:00 5 10 Sur 22 Sur 0 -- -- 100
2018-11-22 08:00:00 4.7 15 Sur 30 Sur 0 -- -- 100
2018-11-22 07:00:00 4.7 15 Sur 26 Sudoeste 0.4 -- -- 100
2018-11-22 06:00:00 4.4 12 Sudoeste 26 Sudoeste 0 -- -- 100
2018-11-22 05:00:00 4.3 21 Sudoeste 37 Sudoeste 1.4 -- -- 97
2018-11-22 04:00:00 4.7 13 Sur 24 Sur 0 -- -- 100
2018-11-22 03:00:00 4.6 13 Sudoeste 24 Sur 0 -- -- 100
2018-11-22 02:00:00 4.2 14 Sur 27 Sur 0 -- -- 100
2018-11-22 01:00:00 4.3 15 Sudoeste 31 Sudoeste 0 -- -- 99
2018-11-22 00:00:00 4.4 17 Sur 32 Sur 0 -- -- 100
2018-11-21 23:00:00 4.8 23 Sur 34 Sur 0 -- -- 100
2018-11-21 22:00:00 4.9 14 Sudoeste 25 Sudoeste 0.4 -- -- 100
2018-11-21 21:00:00 4.2 13 Sudoeste 27 Sur 0.4 -- -- 99
2018-11-21 20:00:00 4.2 18 Sur 41 Sur 0.6 -- -- 97
2018-11-21 19:00:00 4.9 19 Sudoeste 39 Sudoeste 0.4 -- -- 95
2018-11-21 18:00:00 5.5 19 Sudoeste 34 Sur 0 -- -- 89
2018-11-21 17:00:00 5.9 19 Sudoeste 31 Sudoeste 0 -- -- 91
2018-11-21 16:00:00 5.9 18 Sudoeste 39 Sur 0 -- -- 91
2018-11-21 15:00:00 8.3 27 Sudoeste 46 Sudoeste 0 -- -- 75
2018-11-21 14:00:00 8.5 22 Sudoeste 39 Sudoeste 0 -- -- 78
2018-11-21 13:00:00 8.1 23 Sudoeste 40 Sudoeste 0 -- -- 84
2018-11-21 12:00:00 6.7 21 Sudoeste 39 Sudoeste 0 -- -- 92
2018-11-21 11:00:00 6.2 21 Sudoeste 38 Sudoeste 0.2 -- -- 96
2018-11-21 10:00:00 5.8 16 Sudoeste 32 Sur 0 -- -- 99
2018-11-21 09:00:00 5.5 17 Sudoeste 28 Sur 0 -- -- 100
2018-11-21 08:00:00 5.2 19 Sudoeste 30 Sudoeste 0 -- -- 100
2018-11-21 07:00:00 5.5 21 Sudoeste 44 Sudoeste 0.4 -- -- 100
2018-11-21 06:00:00 5.9 24 Sudoeste 38 Sudoeste 0.6 -- -- 100
2018-11-21 05:00:00 5.3 13 Sudoeste 27 Sur 1.4 -- -- 100
2018-11-21 04:00:00 6 19 Sur 29 Sur 0.2 -- -- 100
2018-11-21 03:00:00 5.8 14 Sudoeste 27 Sudoeste 0 -- -- 100
2018-11-21 02:00:00 5.7 14 Sudoeste 24 Sudoeste 0 -- -- 100
2018-11-21 01:00:00 6 18 Sudoeste 32 Sudoeste 0 -- -- 100
2018-11-21 00:00:00 6.4 14 Sudoeste 30 Sudoeste 0.4 -- -- 100
2018-11-20 23:00:00 6.4 17 Sudoeste 32 Sudoeste 0 -- -- 100
2018-11-20 22:00:00 6.3 19 Sudoeste 35 Sudoeste 0 -- -- 100
2018-11-20 21:00:00 6.6 19 Sudoeste 31 Sudoeste 0.4 -- -- 100
2018-11-20 20:00:00 6.8 16 Sudoeste 28 Sudoeste 0 -- -- 99
2018-11-20 19:00:00 6.8 17 Sudoeste 25 Sudoeste 0 -- -- 99
2018-11-20 18:00:00 6.8 18 Sudoeste 32 Sudoeste 0 -- -- 98
2018-11-20 17:00:00 7.4 17 Sudoeste 32 Sudoeste 0 -- -- 91
2018-11-20 16:00:00 7.8 20 Sudoeste 35 Oeste 0 -- -- 88
2018-11-20 15:00:00 7.4 22 Sudoeste 38 Sudoeste 0.2 -- -- 94
2018-11-20 14:00:00 7.2 22 Sudoeste 42 Sudoeste 0 -- -- 94
2018-11-20 13:00:00 8.8 26 Sudoeste 42 Sudoeste 0 -- -- 85
2018-11-20 12:00:00 7.3 21 Sudoeste 35 Sudoeste 0 -- -- 95
2018-11-20 11:00:00 6.8 21 Sudoeste 37 Sudoeste 0 -- -- 100
2018-11-20 10:00:00 6.5 22 Sudoeste 34 Sudoeste 0 -- -- 100
2018-11-20 09:00:00 6.8 21 Sudoeste 32 Oeste 0.2 -- -- 100
2018-11-20 08:00:00 6.8 17 Oeste 25 Oeste 0 -- -- 100
2018-11-20 07:00:00 6 9 Sudoeste 13 Sudoeste 0.2 -- -- 100
2018-11-20 06:00:00 5.8 7 Oeste 30 Sudoeste 2 -- -- 100
2018-11-20 05:00:00 7.3 15 Sudoeste 24 Sudoeste 0.6 -- -- 100
2018-11-20 04:00:00 7.6 12 Sudoeste 18 Oeste 0 -- -- 100
2018-11-20 03:00:00 7.6 12 Sudoeste 18 Sudoeste 0 -- -- 100
2018-11-20 02:00:00 7.8 12 Sudoeste 19 Oeste 0 -- -- 100
2018-11-20 01:00:00 7.1 10 Sudoeste 13 Sudoeste 0 -- -- 100
2018-11-20 00:00:00 7.3 6 Oeste 12 Sudoeste 0 -- -- 100
2018-11-19 23:00:00 8.1 10 Sudoeste 17 Sudoeste 0 -- -- 99
2018-11-19 22:00:00 8.1 11 Sudoeste 15 Sudoeste 0 -- -- 99
2018-11-19 21:00:00 7.9 8 Sudoeste 12 Sudoeste 0 -- -- 97
2018-11-19 20:00:00 8.3 8 Sudoeste 9 Sudoeste 0 -- -- 94
2018-11-19 19:00:00 9.4 3 Sudoeste 6 Oeste 0 -- -- 90
2018-11-19 18:00:00 9.9 6 Oeste 17 Sudoeste 0 -- -- 86
2018-11-19 17:00:00 11.1 10 Sudoeste 14 Sudoeste 0 -- -- 80
2018-11-19 16:00:00 11.7 2 Sur 10 Norte 0 -- -- 76
2018-11-19 15:00:00 11.4 6 Noroeste 17 Norte 0 -- -- 77
2018-11-19 14:00:00 12.1 11 Norte 16 Norte 0 -- -- 76
2018-11-19 13:00:00 13.4 7 Norte 15 Norte 0 -- -- 75
2018-11-19 12:00:00 10.9 6 Nordeste 19 Nordeste 0 -- -- 82
2018-11-19 11:00:00 9.2 14 Nordeste 22 Nordeste 0 -- -- 89
2018-11-19 10:00:00 7.7 13 Nordeste 19 Nordeste 0 -- -- 99
2018-11-19 09:00:00 7.1 13 Nordeste 18 Nordeste 0 -- -- 100
2018-11-19 08:00:00 7.2 10 Nordeste 15 Nordeste 0 -- -- 100
2018-11-19 07:00:00 7.4 10 Nordeste 15 Nordeste 0 -- -- 100
2018-11-19 06:00:00 7.6 10 Este 21 Nordeste 0 -- -- 100
2018-11-19 05:00:00 7.8 11 Este 24 Este 0 -- -- 100
2018-11-19 04:00:00 7.9 14 Este 24 Este 0 -- -- 100
2018-11-19 03:00:00 8.1 16 Este 25 Este 0 -- -- 100
2018-11-19 02:00:00 8 11 Este 24 Este 0 -- -- 100
2018-11-19 01:00:00 8.1 12 Este 18 Este 0 -- -- 100
2018-11-19 00:00:00 8.2 14 Este 18 Nordeste 0.2 -- -- 100
2018-11-18 23:00:00 8.4 10 Nordeste 15 Este 0.8 -- -- 100
2018-11-18 22:00:00 8.5 13 Este 17 Este 0.6 -- -- 100
2018-11-18 21:00:00 8.6 12 Este 16 Este 0.6 -- -- 100
2018-11-18 20:00:00 8.7 12 Este 15 Este 0.2 -- -- 98
2018-11-18 19:00:00 9 12 Nordeste 21 Nordeste 0.2 -- -- 97
2018-11-18 18:00:00 9.5 15 Nordeste 21 Nordeste 0 -- -- 93
2018-11-18 17:00:00 10.3 15 Nordeste 24 Nordeste 0.2 -- -- 87
2018-11-18 16:00:00 10.3 14 Nordeste 22 Nordeste 0 -- -- 88
2018-11-18 15:00:00 10 14 Nordeste 24 Nordeste 0 -- -- 87
2018-11-18 14:00:00 10.7 18 Este 34 Este 0 -- -- 81
2018-11-18 13:00:00 10.3 24 Este 36 Este 0 -- -- 84
2018-11-18 12:00:00 11 24 Este 35 Este 0 -- -- 87
2018-11-18 11:00:00 8.9 23 Nordeste 31 Nordeste 0 -- -- 91
2018-11-18 10:00:00 8.1 18 Nordeste 24 Nordeste 0 -- -- 95
2018-11-18 09:00:00 6.9 19 Nordeste 25 Nordeste 0 -- -- 97
2018-11-18 08:00:00 7 13 Nordeste 24 Nordeste 0 -- -- 97
2018-11-18 07:00:00 7.3 20 Nordeste 26 Nordeste 0 -- -- 96
2018-11-18 06:00:00 7.1 18 Nordeste 25 Nordeste 0 -- -- 97
2018-11-18 05:00:00 7.5 17 Nordeste 24 Nordeste 0 -- -- 96
2018-11-18 04:00:00 7.5 15 Nordeste 26 Este 0 -- -- 95
2018-11-18 03:00:00 8 18 Este 25 Este 0 -- -- 96
2018-11-18 02:00:00 7.1 17 Este 20 Este 0 -- -- 97
2018-11-18 01:00:00 7.2 16 Nordeste 22 Nordeste 0 -- -- 98
2018-11-18 00:00:00 7.2 16 Nordeste 18 Nordeste 0 -- -- 98
2018-11-17 23:00:00 7.5 15 Nordeste 19 Este 0 -- -- 97
2018-11-17 22:00:00 8 14 Nordeste 17 Nordeste 0 -- -- 96
2018-11-17 21:00:00 8.4 14 Nordeste 16 Este 0 -- -- 95
2018-11-17 20:00:00 8.9 10 Nordeste 17 Nordeste 0 -- -- 93
2018-11-17 19:00:00 10.3 11 Nordeste 14 Nordeste 0 -- -- 88
2018-11-17 18:00:00 11.6 9 Nordeste 17 Este 0 -- -- 84
2018-11-17 17:00:00 14.1 12 Nordeste 24 Este 0 -- -- 75
2018-11-17 16:00:00 13.6 17 Este 26 Este 0 -- -- 75
2018-11-17 15:00:00 14.7 15 Este 24 Este 0 -- -- 70
2018-11-17 14:00:00 15.7 12 Este 19 Este 0 -- -- 66
2018-11-17 13:00:00 15.2 8 Este 17 Sudeste 0 -- -- 70
2018-11-17 12:00:00 13.1 12 Este 19 Este 0 -- -- 79
2018-11-17 11:00:00 11 15 Este 21 Este 0 -- -- 90
2018-11-17 10:00:00 8.4 15 Nordeste 20 Nordeste 0 -- -- 100
2018-11-17 09:00:00 5.6 13 Nordeste 19 Nordeste 0 -- -- 100
2018-11-17 08:00:00 5 8 Nordeste 15 Nordeste 0 -- -- 100
2018-11-17 07:00:00 5.1 12 Nordeste 18 Nordeste 0 -- -- 100
2018-11-17 06:00:00 6.4 14 Este 18 Nordeste 0 -- -- 100
2018-11-17 05:00:00 7.2 15 Este 19 Este 0 -- -- 100
2018-11-17 04:00:00 6.6 14 Nordeste 16 Este 0 -- -- 100
2018-11-17 03:00:00 6.5 14 Nordeste 20 Este 0 -- -- 100
2018-11-17 02:00:00 7 14 Nordeste 16 Este 0 -- -- 100
2018-11-17 01:00:00 7.7 12 Este 16 Este 0 -- -- 100
2018-11-17 00:00:00 8 13 Este 16 Este 0 -- -- 100
2018-11-16 23:00:00 9.3 14 Nordeste 16 Nordeste 0 -- -- 99
2018-11-16 22:00:00 9.2 13 Nordeste 15 Nordeste 0 -- -- 99
2018-11-16 21:00:00 9.9 12 Nordeste 14 Nordeste 0 -- -- 97
2018-11-16 20:00:00 10.2 9 Nordeste 11 Nordeste 0 -- -- 96
2018-11-16 19:00:00 9.8 9 Nordeste 12 Nordeste 0 -- -- 96
2018-11-16 18:00:00 10.9 9 Este 21 Este 0 -- -- 91
2018-11-16 17:00:00 11.6 15 Este 27 Este 0 -- -- 88
2018-11-16 16:00:00 12.1 17 Este 25 Sudeste 0 -- -- 84
2018-11-16 15:00:00 12.8 15 Este 26 Este 0 -- -- 81
2018-11-16 14:00:00 14.3 17 Este 27 Este 0 -- -- 76
2018-11-16 13:00:00 13 20 Nordeste 27 Nordeste 0 -- -- 82
2018-11-16 12:00:00 11.6 19 Nordeste 26 Nordeste 0 -- -- 89
2018-11-16 11:00:00 9.6 15 Nordeste 22 Nordeste 0 -- -- 98
2018-11-16 10:00:00 9.3 15 Nordeste 25 Nordeste 0 -- -- 96
2018-11-16 09:00:00 7 17 Nordeste 21 Nordeste 0 -- -- 100
2018-11-16 08:00:00 6 17 Nordeste 19 Nordeste 0 -- -- 100
2018-11-16 07:00:00 6 15 Nordeste 18 Nordeste 0 -- -- 100
2018-11-16 06:00:00 6 14 Nordeste 17 Nordeste 0 -- -- 100
2018-11-16 05:00:00 6.8 15 Nordeste 18 Nordeste 0 -- -- 99
2018-11-16 04:00:00 6.9 14 Nordeste 17 Nordeste 0 -- -- 100
2018-11-16 03:00:00 6.8 12 Nordeste 17 Este 0 -- -- 99
2018-11-16 02:00:00 7.4 15 Nordeste 19 Nordeste 0 -- -- 98
2018-11-16 01:00:00 8.1 16 Nordeste 18 Este 0 -- -- 97
2018-11-16 00:00:00 8.4 13 Nordeste 14 Nordeste 0 -- -- 95
2018-11-15 23:00:00 9.1 13 Nordeste 15 Nordeste 0 -- -- 95
2018-11-15 22:00:00 8.8 12 Norte 13 Norte 0 -- -- 96
2018-11-15 21:00:00 8.7 10 Norte 15 Nordeste 0 -- -- 96
2018-11-15 20:00:00 10.4 13 Nordeste 19 Nordeste 0 -- -- 89
2018-11-15 19:00:00 10.8 14 Nordeste 17 Este 0 -- -- 89
2018-11-15 18:00:00 12.5 11 Nordeste 22 Nordeste 0 -- -- 83
2018-11-15 17:00:00 15.1 17 Este 25 Este 0 -- -- 72
2018-11-15 16:00:00 15.7 15 Este 26 Este 0 -- -- 68
2018-11-15 15:00:00 15.9 15 Este 25 Este 0 -- -- 69
2018-11-15 14:00:00 15.4 13 Nordeste 22 Este 0 -- -- 72
2018-11-15 13:00:00 14.5 16 Este 22 Este 0 -- -- 74
2018-11-15 12:00:00 13.6 15 Nordeste 22 Nordeste 0 -- -- 82
2018-11-15 11:00:00 10.3 12 Nordeste 19 Nordeste 0 -- -- 95
2018-11-15 10:00:00 10 14 Nordeste 22 Nordeste 0 -- -- 95
2018-11-15 09:00:00 8 14 Nordeste 18 Nordeste 0 -- -- 100
2018-11-15 08:00:00 7.8 14 Nordeste 17 Nordeste 0 -- -- 100
2018-11-15 07:00:00 8.3 13 Nordeste 18 Nordeste 0 -- -- 100
2018-11-15 06:00:00 8.2 13 Nordeste 16 Nordeste 0 -- -- 100
2018-11-15 05:00:00 7.9 12 Nordeste 18 Nordeste 0.2 -- -- 100
2018-11-15 04:00:00 7.6 14 Nordeste 18 Nordeste 0 -- -- 100
2018-11-15 03:00:00 7.6 13 Nordeste 19 Nordeste 0 -- -- 100
2018-11-15 02:00:00 7.7 15 Nordeste 19 Nordeste 0 -- -- 100
2018-11-15 01:00:00 7.4 11 Nordeste 19 Nordeste 0 -- -- 100
2018-11-15 00:00:00 8 15 Nordeste 24 Nordeste 0 -- -- 100
2018-11-14 23:00:00 7.9 15 Nordeste 21 Nordeste 0 -- -- 100
2018-11-14 22:00:00 7.9 16 Nordeste 24 Nordeste 0 -- -- 100
2018-11-14 21:00:00 8.8 18 Nordeste 24 Nordeste 0 -- -- 99
2018-11-14 20:00:00 8.9 14 Nordeste 19 Nordeste 0 -- -- 100
2018-11-14 19:00:00 9.1 10 Nordeste 16 Nordeste 0 -- -- 99
2018-11-14 18:00:00 9 12 Nordeste 19 Este 0 -- -- 98
2018-11-14 17:00:00 9 14 Este 22 Este 0 -- -- 97
2018-11-14 16:00:00 9 14 Este 21 Nordeste 0 -- -- 96
2018-11-14 15:00:00 9.2 17 Este 24 Este 0 -- -- 95
2018-11-14 14:00:00 9.1 14 Este 24 Este 0 -- -- 100
2018-11-14 13:00:00 8.5 15 Este 25 Este 0 -- -- 100
2018-11-14 12:00:00 8.1 19 Este 28 Nordeste 0 -- -- 100
2018-11-14 11:00:00 7.5 19 Este 29 Este 0 -- -- 100
2018-11-14 10:00:00 7.3 20 Nordeste 28 Nordeste 0 -- -- 100
2018-11-14 09:00:00 6.7 20 Nordeste 26 Nordeste 0 -- -- 100
2018-11-14 08:00:00 5.5 17 Nordeste 21 Nordeste 0 -- -- 100
2018-11-14 07:00:00 4.7 15 Nordeste 21 Nordeste 0 -- -- 100
2018-11-14 06:00:00 5.1 16 Nordeste 20 Nordeste 0 -- -- 100
2018-11-14 05:00:00 5.7 14 Nordeste 17 Nordeste 0 -- -- 100
2018-11-14 04:00:00 5.4 17 Nordeste 22 Nordeste 0 -- -- 100
2018-11-14 03:00:00 5.2 12 Nordeste 17 Nordeste 0 -- -- 100
2018-11-14 02:00:00 5.4 14 Nordeste 16 Nordeste 0 -- -- 100
2018-11-14 01:00:00 5 10 Nordeste 13 Nordeste 0 -- -- 100
2018-11-14 00:00:00 3.6 7 Norte 12 Nordeste 0 -- -- 100
2018-11-13 23:00:00 5.7 9 Este 12 Este 0 -- -- 100
2018-11-13 22:00:00 6.5 10 Este 14 Este 0 -- -- 100
2018-11-13 21:00:00 6 11 Este 12 Este 0 -- -- 100
2018-11-13 20:00:00 6.4 4 Este 14 Nordeste 0 -- -- 100
2018-11-13 19:00:00 7.5 12 Nordeste 15 Este 0 -- -- 98
2018-11-13 18:00:00 9.3 12 Este 18 Este 0 -- -- 93
2018-11-13 17:00:00 11.7 14 Este 23 Este 0 -- -- 83
2018-11-13 16:00:00 12.7 16 Este 27 Este 0 -- -- 78
2018-11-13 15:00:00 12.4 16 Este 26 Este 0 -- -- 79
2018-11-13 14:00:00 12.6 15 Nordeste 26 Nordeste 0 -- -- 79
2018-11-13 13:00:00 11.1 15 Nordeste 31 Nordeste 0 -- -- 86
2018-11-13 12:00:00 8.8 23 Nordeste 33 Nordeste 0 -- -- 94
2018-11-13 11:00:00 7.6 18 Nordeste 25 Nordeste 0 -- -- 96
2018-11-13 10:00:00 6.6 18 Nordeste 24 Nordeste 0 -- -- 95
2018-11-13 09:00:00 5.8 15 Nordeste 23 Nordeste 0 -- -- 96
2018-11-13 08:00:00 4.8 15 Nordeste 19 Nordeste 0 -- -- 100
2018-11-13 07:00:00 4.5 16 Nordeste 22 Nordeste 0 -- -- 98
2018-11-13 06:00:00 3.5 16 Nordeste 26 Nordeste 0 -- -- 92
2018-11-13 05:00:00 3.1 17 Nordeste 19 Nordeste 0 -- -- 96
2018-11-13 04:00:00 3.2 14 Nordeste 17 Nordeste 0 -- -- 100
2018-11-13 03:00:00 2.8 11 Nordeste 13 Nordeste 0 -- -- 100
2018-11-13 02:00:00 3.5 9 Nordeste 9 Nordeste 0 -- -- 100
2018-11-13 01:00:00 3.9 8 Norte 9 Norte 0 -- -- 100
2018-11-13 00:00:00 3.9 4 Norte 6 Norte 0 -- -- 100
2018-11-12 23:00:00 4.4 7 Norte 8 Norte 0 -- -- 100
2018-11-12 22:00:00 5.1 5 Oeste 6 Noroeste 0 -- -- 99
2018-11-12 21:00:00 6.3 4 Sudoeste 6 Sudoeste 0 -- -- 100
2018-11-12 20:00:00 6.8 6 Sudoeste 9 Oeste 0 -- -- 98
2018-11-12 19:00:00 7.4 4 Sur 6 Sudeste 0 -- -- 93
2018-11-12 18:00:00 9.8 6 Sudoeste 10 Sudoeste 0 -- -- 82
2018-11-12 17:00:00 10.3 4 Oeste 10 Noroeste 0 -- -- 75
2018-11-12 16:00:00 12.4 4 Norte 12 Nordeste 0 -- -- 67
2018-11-12 15:00:00 10.6 6 Nordeste 11 Nordeste 0 -- -- 75
2018-11-12 14:00:00 9.3 7 Norte 14 Norte 0 -- -- 84
2018-11-12 13:00:00 8.4 8 Nordeste 11 Nordeste 0 -- -- 89
2018-11-12 12:00:00 8.1 5 Nordeste 11 Norte 0 -- -- 92
2018-11-12 11:00:00 7.7 4 Este 8 Este 0 -- -- 97
2018-11-12 10:00:00 6.3 4 Sudeste 10 Sudeste 0 -- -- 100
2018-11-12 09:00:00 5.7 4 Este 10 Nordeste 0 -- -- 100
2018-11-12 08:00:00 5.5 2 Este 9 Nordeste 0 -- -- 100
2018-11-12 07:00:00 5.3 4 Norte 11 Oeste 0 -- -- 100
2018-11-12 06:00:00 6.5 4 Oeste 14 Sudoeste 0.2 -- -- 100
2018-11-12 05:00:00 6.7 10 Oeste 15 Sudoeste 0.2 -- -- 100
2018-11-12 04:00:00 6.8 7 Oeste 12 Oeste 0.2 -- -- 100
2018-11-12 03:00:00 6.9 0 Calma -- -- 0.2 -- -- 100
2018-11-12 02:00:00 6.8 0 Calma 5 Sur 0.4 -- -- 100
2018-11-12 01:00:00 6.8 4 Sur 7 Sur 1 -- -- 100
2018-11-12 00:00:00 6.8 7 Sur 17 Sur 1 -- -- 100
2018-11-11 23:00:00 6.9 10 Sudeste 17 Sur 0.6 -- -- 100
2018-11-11 22:00:00 7.1 9 Sur 18 Sudeste 2.2 -- -- 100
2018-11-11 21:00:00 7.3 11 Sur 15 Sudeste 2.8 -- -- 100
2018-11-11 20:00:00 7.4 6 Sudeste 12 Sudeste 2.6 -- -- 100
2018-11-11 19:00:00 7.3 3 Nordeste 4 Norte 3 -- -- 100
2018-11-11 18:00:00 7.8 0 Calma 12 Sudoeste 1.8 -- -- 100
2018-11-11 17:00:00 8 9 Sudoeste 13 Oeste 2.2 -- -- 100
2018-11-11 16:00:00 8 6 Oeste 18 Oeste 1.2 -- -- 97
2018-11-11 15:00:00 8.4 13 Oeste 33 Oeste 0.6 -- -- 95
2018-11-11 14:00:00 8.5 14 Sudoeste 43 Sudoeste 9 -- -- 100
2018-11-11 13:00:00 10.9 27 Sudoeste 45 Sudoeste 2.2 -- -- 99
2018-11-11 12:00:00 10.6 27 Sur 39 Sur 1 -- -- 100
2018-11-11 11:00:00 10.2 21 Sur 42 Sur 1.4 -- -- 100
2018-11-11 10:00:00 9.9 17 Sudoeste 35 Sudoeste 2.2 -- -- 100
2018-11-11 09:00:00 9.8 23 Sudoeste 44 Sur 0.6 -- -- 98
2018-11-11 08:00:00 9.6 22 Sudoeste 44 Sudoeste 0.4 -- -- 97
2018-11-11 07:00:00 10.1 24 Sudoeste 45 Sudoeste 0 -- -- 91
2018-11-11 06:00:00 9.9 26 Sudoeste 43 Sur 0 -- -- 92
2018-11-11 05:00:00 9.9 23 Sudoeste 46 Sudoeste 0 -- -- 93
2018-11-11 04:00:00 9.7 25 Sudoeste 47 Sudoeste 0 -- -- 93
2018-11-11 03:00:00 9.2 22 Sudoeste 41 Sur 0 -- -- 97
2018-11-11 02:00:00 9.5 22 Sudoeste 37 Sudoeste 0 -- -- 95
2018-11-11 01:00:00 9.4 23 Sudoeste 39 Sudoeste 0 -- -- 96
2018-11-11 00:00:00 8.8 14 Sudoeste 29 Sur 0 -- -- 94
2018-11-10 23:00:00 8.7 14 Sur 30 Sudoeste 0 -- -- 92
2018-11-10 22:00:00 9.3 23 Sudoeste 36 Sudoeste 0 -- -- 90
2018-11-10 21:00:00 9.5 19 Sudoeste 33 Sudoeste 0 -- -- 86
2018-11-10 20:00:00 10.2 22 Sudoeste 33 Sudoeste 0 -- -- 87
2018-11-10 19:00:00 10.6 22 Sudoeste 37 Oeste 0 -- -- 83
2018-11-10 18:00:00 10.7 23 Sudoeste 51 Sudoeste 0 -- -- 83
2018-11-10 17:00:00 11.6 39 Oeste 66 Oeste 0 -- -- 79
2018-11-10 16:00:00 12.5 38 Sudoeste 64 Sudoeste 0 -- -- 75
2018-11-10 15:00:00 12.1 30 Sudoeste 55 Sudoeste 0 -- -- 83
2018-11-10 14:00:00 11.6 30 Sudoeste 51 Sudoeste 0 -- -- 93
2018-11-10 13:00:00 10.3 30 Sudoeste 45 Sudoeste 0.2 -- -- 100
2018-11-10 12:00:00 10.2 25 Sudoeste 42 Sudoeste 0 -- -- 99
2018-11-10 11:00:00 10.2 21 Sudoeste 37 Sudoeste 0.2 -- -- 100
2018-11-10 10:00:00 10.2 20 Sudoeste 31 Sudoeste 0 -- -- 100
2018-11-10 09:00:00 10.3 21 Sudoeste 39 Sudoeste 0.4 -- -- 100
2018-11-10 08:00:00 10.5 26 Sudoeste 54 Oeste 1.4 -- -- 100
2018-11-10 07:00:00 10.9 33 Sudoeste 56 Sudoeste 2.2 -- -- 100
2018-11-10 06:00:00 10.4 31 Sudoeste 53 Sur 2.8 -- -- 100
2018-11-10 05:00:00 10.1 33 Sudoeste 54 Sudoeste 1.4 -- -- 100
2018-11-10 04:00:00 10.1 35 Sudoeste 62 Sudoeste 1.8 -- -- 100
2018-11-10 03:00:00 10.1 36 Sudoeste 65 Sur 1.2 -- -- 100
2018-11-10 02:00:00 9.9 30 Sudoeste 55 Sudoeste 0.6 -- -- 100
2018-11-10 01:00:00 9.9 33 Sudoeste 51 Sudoeste 0 -- -- 100
2018-11-10 00:00:00 9.8 37 Sudoeste 55 Sudoeste 0.2 -- -- 100
2018-11-09 23:00:00 9.7 31 Sudoeste 54 Sudoeste 0.2 -- -- 99
2018-11-09 22:00:00 9.6 35 Sudoeste 56 Sudoeste 0 -- -- 97
2018-11-09 21:00:00 9.2 28 Sudoeste 48 Sudoeste 0 -- -- 98
2018-11-09 20:00:00 8.9 28 Sudoeste 51 Sudoeste 0 -- -- 99
2018-11-09 19:00:00 8.5 32 Sudoeste 49 Sudoeste 0 -- -- 99
2018-11-09 18:00:00 8.4 24 Sudoeste 42 Sudoeste 0 -- -- 96
2018-11-09 17:00:00 8 25 Sudoeste 44 Sudoeste 0.2 -- -- 97
2018-11-09 16:00:00 7.7 21 Sudoeste 36 Sudoeste 0 -- -- 95
2018-11-09 15:00:00 7.4 21 Sudoeste 37 Sudoeste 0 -- -- 96
2018-11-09 14:00:00 8.1 24 Sudoeste 35 Sudoeste 0 -- -- 88
2018-11-09 13:00:00 7 23 Sudoeste 37 Sudoeste 0 -- -- 91
2018-11-09 12:00:00 7.2 23 Sudoeste 33 Sudoeste 0 -- -- 90
2018-11-09 11:00:00 5.7 19 Sudoeste 29 Sudoeste 0 -- -- 100
2018-11-09 10:00:00 4.6 16 Sudoeste 25 Sudoeste 0 -- -- 100
2018-11-09 09:00:00 3.8 15 Sudoeste 23 Sudoeste 0 -- -- 100
2018-11-09 08:00:00 3.4 13 Sudoeste 24 Sudoeste 0 -- -- 100
2018-11-09 07:00:00 3.5 11 Sudoeste 21 Sudoeste 0 -- -- 100
2018-11-09 06:00:00 3.4 8 Sudoeste 15 Oeste 0 -- -- 100
2018-11-09 05:00:00 3.6 13 Sudoeste 23 Oeste 0 -- -- 100
2018-11-09 04:00:00 4.2 12 Sudoeste 24 Sudoeste 0 -- -- 100
2018-11-09 03:00:00 4.3 16 Sudoeste 28 Sudoeste 0 -- -- 100
2018-11-09 02:00:00 4.1 15 Sudoeste 32 Sudoeste 0 -- -- 100
2018-11-09 01:00:00 3.9 14 Sudoeste 25 Sudoeste 0 -- -- 100
2018-11-09 00:00:00 3.8 15 Sudoeste 28 Sudoeste 0 -- -- 100